createdAt,value
2023-01-22T00:01:25.586Z,88.34
2023-01-22T00:03:54.754Z,87.44
2023-01-22T00:06:25.146Z,87.31
2023-01-22T00:08:54.308Z,87.22
2023-01-22T00:11:22.368Z,87.16
2023-01-22T00:13:51.396Z,87.39
2023-01-22T00:16:20.267Z,87.09
2023-01-22T00:18:49.607Z,87.05
2023-01-22T00:21:19.556Z,86.37
2023-01-22T00:23:47.424Z,86.35
2023-01-22T00:26:18.386Z,86.50
2023-01-22T00:28:46.856Z,86.20
2023-01-22T00:31:16.688Z,86.01
2023-01-22T00:33:45.270Z,86.40
2023-01-22T00:36:16.522Z,87.16
2023-01-22T00:38:44.745Z,87.49
2023-01-22T00:41:15.384Z,87.43
2023-01-22T00:43:43.519Z,86.78
2023-01-22T00:46:14.957Z,86.08
2023-01-22T00:48:45.203Z,86.42
2023-01-22T00:51:15.609Z,86.52
2023-01-22T00:53:44.661Z,86.11
2023-01-22T00:56:14.585Z,86.23
2023-01-22T00:58:44.907Z,87.17
2023-01-22T01:01:14.632Z,87.37
2023-01-22T01:03:42.940Z,87.37
2023-01-22T01:06:15.368Z,86.74
2023-01-22T01:08:44.855Z,86.36
2023-01-22T01:11:16.627Z,86.73
2023-01-22T01:13:45.690Z,86.66
2023-01-22T01:16:15.851Z,86.39
2023-01-22T01:18:44.424Z,86.56
2023-01-22T01:21:14.399Z,87.41
2023-01-22T01:23:42.699Z,87.21
2023-01-22T01:26:15.273Z,87.72
2023-01-22T01:28:45.251Z,87.87
2023-01-22T01:31:15.600Z,88.38
2023-01-22T01:33:44.250Z,88.35
2023-01-22T01:36:15.324Z,88.40
2023-01-22T01:38:43.936Z,88.43
2023-01-22T01:41:15.481Z,88.35
2023-01-22T01:43:44.086Z,87.67
2023-01-22T01:46:19.857Z,87.51
2023-01-22T01:48:49.826Z,87.71
2023-01-22T01:51:24.261Z,87.10
2023-01-22T01:53:52.840Z,87.26
2023-01-22T01:56:27.366Z,86.74
2023-01-22T01:59:00.208Z,86.80
2023-01-22T02:01:29.134Z,87.08
2023-01-22T02:03:57.016Z,87.78
2023-01-22T02:06:26.412Z,88.58
2023-01-22T02:08:55.922Z,87.96
2023-01-22T02:11:24.257Z,87.55
2023-01-22T02:13:58.353Z,87.25
2023-01-22T02:16:28.130Z,87.14
2023-01-22T02:18:56.439Z,86.64
2023-01-22T02:21:40.275Z,86.40
2023-01-22T02:24:10.365Z,86.34
2023-01-22T02:26:40.020Z,86.11
2023-01-22T02:29:10.383Z,87.18
2023-01-22T02:31:41.105Z,86.61
2023-01-22T02:34:10.325Z,86.23
2023-01-22T02:36:41.870Z,86.01
2023-01-22T02:39:09.724Z,85.55
2023-01-22T02:41:39.308Z,86.16
2023-01-22T02:44:07.688Z,86.03
2023-01-22T02:46:36.414Z,85.64
2023-01-22T02:49:04.437Z,85.40
2023-01-22T02:51:33.745Z,85.54
2023-01-22T02:54:02.946Z,85.01
2023-01-22T02:56:30.966Z,85.89
2023-01-22T02:59:01.267Z,85.95
2023-01-22T03:01:29.374Z,86.46
2023-01-22T03:04:01.916Z,86.24
2023-01-22T03:06:30.927Z,85.69
2023-01-22T03:09:02.712Z,86.14
2023-01-22T03:11:38.114Z,86.33
2023-01-22T03:14:28.552Z,85.68
2023-01-22T03:17:14.196Z,85.35
2023-01-22T03:19:59.995Z,85.42
2023-01-22T03:22:28.355Z,84.97
2023-01-22T03:25:01.284Z,85.22
2023-01-22T03:27:31.791Z,85.50
2023-01-22T03:29:59.742Z,85.36
2023-01-22T03:32:29.691Z,85.15
2023-01-22T03:34:57.660Z,84.90
2023-01-22T03:37:29.057Z,84.83
2023-01-22T03:40:01.046Z,84.88
2023-01-22T03:42:38.351Z,85.14
2023-01-22T03:45:10.765Z,85.29
2023-01-22T03:47:39.030Z,85.14
2023-01-22T03:50:20.991Z,84.71
2023-01-22T03:52:48.816Z,85.93
2023-01-22T03:55:18.167Z,85.23
2023-01-22T03:57:46.226Z,85.92
2023-01-22T04:00:15.981Z,85.09
2023-01-22T04:02:44.408Z,84.56
2023-01-22T04:05:20.469Z,85.84
2023-01-22T04:07:50.392Z,85.15
2023-01-22T04:10:21.930Z,85.28
2023-01-22T04:12:50.408Z,85.38
2023-01-22T04:15:21.860Z,84.89
2023-01-22T04:17:53.289Z,85.04
2023-01-22T04:20:31.661Z,85.02
2023-01-22T04:23:20.694Z,85.06
2023-01-22T04:25:51.350Z,85.03
2023-01-22T04:28:20.557Z,84.94
2023-01-22T04:30:53.918Z,84.66
2023-01-22T04:33:42.750Z,84.63
2023-01-22T04:36:15.920Z,84.30
2023-01-22T04:38:43.973Z,84.49
2023-01-22T04:41:15.513Z,85.12
2023-01-22T04:43:44.366Z,84.84
2023-01-22T04:46:12.340Z,85.48
2023-01-22T04:48:40.355Z,85.69
2023-01-22T04:51:08.263Z,86.35
2023-01-22T04:53:36.212Z,86.77
2023-01-22T04:56:04.203Z,86.12
2023-01-22T04:58:33.817Z,86.05
2023-01-22T05:01:01.986Z,85.90
2023-01-22T05:03:30.251Z,86.08
2023-01-22T05:05:58.306Z,85.30
2023-01-22T05:08:26.223Z,84.95
2023-01-22T05:10:54.934Z,84.85
2023-01-22T05:13:29.305Z,84.56
2023-01-22T05:15:58.897Z,84.76
2023-01-22T05:18:27.515Z,84.46
2023-01-22T05:20:55.334Z,84.72
2023-01-22T05:23:26.567Z,84.73
2023-01-22T05:25:54.963Z,84.16
2023-01-22T05:28:33.704Z,84.85
2023-01-22T05:31:12.734Z,84.21
2023-01-22T05:33:49.263Z,85.01
2023-01-22T05:36:18.632Z,84.73
2023-01-22T05:38:47.055Z,84.87
2023-01-22T05:41:16.138Z,85.05
2023-01-22T05:43:44.134Z,84.50
2023-01-22T05:46:19.774Z,84.26
2023-01-22T05:48:53.434Z,83.84
2023-01-22T05:51:25.402Z,84.32
2023-01-22T05:53:54.011Z,85.02
2023-01-22T05:56:22.067Z,85.50
2023-01-22T05:58:52.307Z,85.68
2023-01-22T06:01:21.580Z,85.19
2023-01-22T06:03:53.370Z,85.21
2023-01-22T06:06:27.867Z,85.21
2023-01-22T06:09:02.798Z,85.22
2023-01-22T06:11:39.214Z,84.96
2023-01-22T06:14:07.998Z,85.07
2023-01-22T06:16:37.349Z,85.62
2023-01-22T06:19:05.282Z,85.58
2023-01-22T06:22:02.359Z,85.12
2023-01-22T06:24:40.952Z,85.96
2023-01-22T06:27:10.385Z,86.31
2023-01-22T06:29:48.984Z,85.56
2023-01-22T06:32:18.732Z,85.48
2023-01-22T06:34:46.641Z,85.57
2023-01-22T06:37:14.588Z,85.96
2023-01-22T06:39:44.415Z,85.91
2023-01-22T06:42:21.794Z,85.93
2023-01-22T06:44:50.743Z,86.02
2023-01-22T06:47:21.227Z,86.49
2023-01-22T06:49:49.080Z,86.17
2023-01-22T06:52:17.061Z,85.82
2023-01-22T06:54:44.971Z,86.02
2023-01-22T06:57:12.946Z,85.73
2023-01-22T06:59:43.622Z,86.59
2023-01-22T07:02:17.487Z,85.99
2023-01-22T07:04:46.833Z,86.03
2023-01-22T07:07:17.139Z,86.12
2023-01-22T07:09:45.194Z,86.27
2023-01-22T07:12:13.018Z,86.27
2023-01-22T07:14:41.025Z,85.86
2023-01-22T07:17:08.949Z,86.08
2023-01-22T07:19:36.849Z,85.81
2023-01-22T07:22:06.105Z,86.12
2023-01-22T07:24:33.883Z,85.81
2023-01-22T07:27:03.786Z,85.77
2023-01-22T07:29:31.627Z,85.85
2023-01-22T07:32:01.586Z,85.49
2023-01-22T07:34:29.541Z,86.28
2023-01-22T07:36:57.553Z,86.27
2023-01-22T07:39:27.760Z,86.30
2023-01-22T07:41:55.694Z,86.67
2023-01-22T07:44:26.560Z,86.73
2023-01-22T07:46:54.534Z,86.93
2023-01-22T07:49:22.355Z,86.81
2023-01-22T07:51:50.210Z,86.51
2023-01-22T07:54:20.030Z,87.39
2023-01-22T07:56:50.466Z,87.10
2023-01-22T07:59:18.351Z,86.74
2023-01-22T08:01:46.195Z,86.83
2023-01-22T08:04:14.094Z,87.15
2023-01-22T08:06:42.109Z,87.47
2023-01-22T08:09:10.981Z,87.38
2023-01-22T08:11:38.795Z,87.22
2023-01-22T08:14:08.021Z,87.75
2023-01-22T08:16:36.810Z,87.53
2023-01-22T08:19:04.699Z,86.88
2023-01-22T08:21:33.702Z,86.95
2023-01-22T08:24:01.569Z,86.33
2023-01-22T08:26:30.098Z,87.29
2023-01-22T08:28:57.982Z,87.00
2023-01-22T08:31:28.645Z,87.97
2023-01-22T08:33:56.776Z,86.87
2023-01-22T08:36:24.698Z,87.21
2023-01-22T08:38:52.622Z,85.80
2023-01-22T08:41:20.771Z,86.00
2023-01-22T08:43:52.791Z,86.29
2023-01-22T08:46:20.803Z,86.25
2023-01-22T08:48:52.414Z,86.34
2023-01-22T08:51:22.722Z,87.22
2023-01-22T08:53:50.982Z,86.94
2023-01-22T08:56:19.883Z,86.09
2023-01-22T08:58:50.063Z,86.25
2023-01-22T09:01:19.588Z,85.89
2023-01-22T09:03:48.752Z,86.13
2023-01-22T09:06:18.508Z,86.16
2023-01-22T09:08:46.422Z,87.27
2023-01-22T09:11:14.228Z,88.60
2023-01-22T09:13:42.021Z,88.67
2023-01-22T09:16:11.060Z,87.57
2023-01-22T09:18:39.451Z,87.66
2023-01-22T09:21:08.201Z,87.85
2023-01-22T09:23:37.418Z,87.31
2023-01-22T09:26:05.471Z,87.28
2023-01-22T09:28:35.822Z,87.75
2023-01-22T09:31:04.470Z,87.95
2023-01-22T09:33:32.392Z,87.34
2023-01-22T09:36:08.420Z,85.65
2023-01-22T09:38:38.852Z,86.47
2023-01-22T09:41:17.069Z,87.14
2023-01-22T09:43:50.715Z,87.20
2023-01-22T09:46:24.350Z,86.71
2023-01-22T09:48:57.675Z,87.82
2023-01-22T09:51:27.824Z,87.75
2023-01-22T09:54:00.453Z,87.84
2023-01-22T09:56:35.795Z,86.54
2023-01-22T09:59:07.271Z,85.54
2023-01-22T10:01:36.641Z,87.86
2023-01-22T10:04:22.873Z,87.86
2023-01-22T10:06:52.233Z,87.82
2023-01-22T10:09:21.807Z,88.32
2023-01-22T10:11:54.944Z,87.31
2023-01-22T10:14:25.212Z,86.14
2023-01-22T10:16:53.093Z,86.13
2023-01-22T10:19:26.009Z,86.70
2023-01-22T10:21:58.498Z,85.51
2023-01-22T10:24:28.354Z,86.56
2023-01-22T10:26:58.924Z,87.00
2023-01-22T10:29:32.642Z,88.35
2023-01-22T10:32:02.151Z,88.16
2023-01-22T10:34:34.432Z,86.59
2023-01-22T10:37:04.635Z,87.85
2023-01-22T10:39:41.609Z,88.74
2023-01-22T10:42:16.911Z,87.51
2023-01-22T10:44:45.182Z,87.65
2023-01-22T10:47:20.605Z,87.92
2023-01-22T10:49:48.831Z,88.23
2023-01-22T10:52:23.866Z,89.42
2023-01-22T10:54:56.373Z,89.61
2023-01-22T10:57:29.255Z,90.38
2023-01-22T11:00:05.812Z,90.50
2023-01-22T11:02:36.268Z,88.97
2023-01-22T11:05:18.480Z,87.97
2023-01-22T11:07:49.390Z,89.06
2023-01-22T11:10:23.447Z,90.08
2023-01-22T11:12:55.047Z,89.11
2023-01-22T11:15:31.437Z,87.79
2023-01-22T11:18:04.725Z,87.22
2023-01-22T11:20:38.998Z,88.52
2023-01-22T11:23:20.449Z,88.82
2023-01-22T11:26:01.387Z,87.58
2023-01-22T11:28:42.529Z,88.39
2023-01-22T11:31:23.568Z,88.54
2023-01-22T11:34:11.557Z,88.99
2023-01-22T11:36:46.393Z,89.65
2023-01-22T11:39:29.612Z,88.12
2023-01-22T11:42:04.562Z,87.91
2023-01-22T11:45:00.339Z,86.68
2023-01-22T11:47:53.249Z,86.39
2023-01-22T11:50:29.345Z,87.45
2023-01-22T11:53:11.523Z,86.82
2023-01-22T11:55:55.992Z,86.33
2023-01-22T11:58:37.429Z,85.15
2023-01-22T12:01:18.948Z,84.69
2023-01-22T12:04:14.801Z,84.17
2023-01-22T12:07:03.449Z,84.56
2023-01-22T12:09:40.093Z,85.82
2023-01-22T12:12:24.289Z,84.46
2023-01-22T12:15:23.522Z,84.45
2023-01-22T12:18:09.234Z,84.02
2023-01-22T12:20:52.817Z,83.38
2023-01-22T12:23:27.066Z,84.77
2023-01-22T12:26:00.036Z,83.66
2023-01-22T12:28:33.146Z,82.99
2023-01-22T12:31:09.349Z,83.62
2023-01-22T12:33:41.855Z,84.09
2023-01-22T12:36:16.358Z,82.67
2023-01-22T12:38:51.765Z,83.85
2023-01-22T12:41:32.554Z,82.81
2023-01-22T12:44:03.464Z,84.55
2023-01-22T12:46:42.973Z,84.46
2023-01-22T12:49:13.098Z,85.09
2023-01-22T12:51:42.870Z,84.85
2023-01-22T12:54:19.395Z,84.71
2023-01-22T12:56:48.214Z,83.41
2023-01-22T12:59:41.426Z,82.99
2023-01-22T13:02:35.650Z,83.55
2023-01-22T13:05:18.911Z,82.68
2023-01-22T13:07:47.785Z,82.51
2023-01-22T13:10:33.051Z,83.66
2023-01-22T13:13:03.485Z,83.60
2023-01-22T13:15:35.533Z,83.23
2023-01-22T13:18:08.113Z,83.68
2023-01-22T13:20:38.562Z,83.70
2023-01-22T13:23:08.122Z,84.71
2023-01-22T13:25:36.173Z,84.36
2023-01-22T13:28:04.675Z,84.23
2023-01-22T13:30:33.142Z,84.04
2023-01-22T13:33:13.691Z,83.31
2023-01-22T13:35:43.255Z,82.10
2023-01-22T13:38:19.800Z,81.39
2023-01-22T13:40:51.761Z,82.58
2023-01-22T13:43:22.795Z,83.66
2023-01-22T13:45:52.641Z,84.45
2023-01-22T13:48:24.576Z,82.90
2023-01-22T13:50:56.715Z,83.11
2023-01-22T13:53:32.114Z,83.63
2023-01-22T13:56:01.115Z,83.77
2023-01-22T13:58:47.855Z,84.32
2023-01-22T14:01:30.303Z,83.82
2023-01-22T14:04:04.318Z,84.40
2023-01-22T14:06:45.051Z,85.18
2023-01-22T14:09:13.107Z,84.66
2023-01-22T14:11:41.981Z,84.56
2023-01-22T14:14:17.556Z,84.04
2023-01-22T14:16:45.668Z,83.89
2023-01-22T14:19:15.332Z,83.86
2023-01-22T14:21:44.303Z,84.11
2023-01-22T14:24:12.186Z,82.99
2023-01-22T14:26:40.102Z,82.48
2023-01-22T14:29:08.797Z,82.72
2023-01-22T14:31:36.648Z,82.49
2023-01-22T14:34:05.009Z,82.85
2023-01-22T14:36:34.343Z,83.21
2023-01-22T14:39:02.112Z,83.30
2023-01-22T14:41:29.969Z,82.76
2023-01-22T14:43:57.843Z,82.50
2023-01-22T14:46:25.705Z,82.69
2023-01-22T14:48:53.447Z,82.61
2023-01-22T14:51:21.305Z,82.48
2023-01-22T14:53:50.522Z,82.28
2023-01-22T14:56:18.355Z,82.81
2023-01-22T14:58:46.787Z,82.60
2023-01-22T15:01:16.559Z,82.54
2023-01-22T15:03:44.603Z,82.34
2023-01-22T15:06:12.446Z,83.30
2023-01-22T15:08:40.381Z,84.01
2023-01-22T15:11:09.695Z,83.27
2023-01-22T15:13:37.660Z,82.90
2023-01-22T15:16:08.683Z,83.15
2023-01-22T15:18:37.612Z,83.95
2023-01-22T15:21:07.750Z,82.76
2023-01-22T15:23:36.025Z,84.11
2023-01-22T15:26:09.473Z,82.74
2023-01-22T15:28:38.708Z,81.96
2023-01-22T15:31:07.943Z,82.69
2023-01-22T15:33:36.610Z,82.98
2023-01-22T15:36:05.890Z,82.24
2023-01-22T15:38:33.779Z,82.54
2023-01-22T15:41:06.909Z,82.21
2023-01-22T15:43:38.388Z,82.96
2023-01-22T15:46:06.392Z,82.26
2023-01-22T15:48:35.743Z,83.22
2023-01-22T15:51:09.437Z,83.01
2023-01-22T15:53:38.092Z,83.74
2023-01-22T15:56:07.320Z,83.34
2023-01-22T15:58:36.032Z,82.24
2023-01-22T16:01:07.793Z,82.68
2023-01-22T16:03:35.667Z,83.32
2023-01-22T16:06:10.374Z,82.90
2023-01-22T16:08:38.291Z,83.14
2023-01-22T16:11:06.957Z,83.66
2023-01-22T16:13:35.063Z,84.79
2023-01-22T16:16:04.755Z,83.55
2023-01-22T16:18:36.356Z,83.31
2023-01-22T16:21:04.936Z,83.05
2023-01-22T16:23:34.299Z,82.79
2023-01-22T16:26:06.540Z,84.25
2023-01-22T16:28:34.410Z,83.13
2023-01-22T16:31:03.862Z,82.98
2023-01-22T16:33:35.159Z,82.35
2023-01-22T16:36:05.227Z,81.69
2023-01-22T16:38:34.164Z,82.56
2023-01-22T16:41:27.322Z,82.49
2023-01-22T16:43:59.342Z,81.78
2023-01-22T16:46:29.358Z,81.42
2023-01-22T16:49:01.097Z,82.48
2023-01-22T16:51:34.314Z,82.00
2023-01-22T16:54:02.397Z,82.47
2023-01-22T16:56:30.337Z,82.50
2023-01-22T16:58:58.201Z,82.38
2023-01-22T17:01:26.685Z,84.22
2023-01-22T17:03:54.535Z,84.47
2023-01-22T17:06:29.456Z,84.79
2023-01-22T17:08:58.340Z,84.33
2023-01-22T17:11:26.133Z,84.86
2023-01-22T17:13:54.050Z,85.12
2023-01-22T17:16:21.895Z,85.49
2023-01-22T17:18:49.858Z,85.31
2023-01-22T17:21:19.582Z,85.40
2023-01-22T17:23:49.111Z,85.37
2023-01-22T17:26:18.763Z,85.21
2023-01-22T17:28:46.681Z,85.42
2023-01-22T17:31:17.004Z,84.67
2023-01-22T17:33:44.997Z,84.75
2023-01-22T17:36:14.893Z,85.14
2023-01-22T17:38:43.391Z,85.23
2023-01-22T17:41:15.994Z,85.37
2023-01-22T17:43:45.408Z,85.06
2023-01-22T17:46:15.268Z,85.44
2023-01-22T17:48:44.794Z,84.76
2023-01-22T17:51:17.022Z,85.39
2023-01-22T17:53:46.636Z,86.41
2023-01-22T17:56:18.414Z,85.63
2023-01-22T17:58:50.010Z,85.67
2023-01-22T18:01:19.732Z,86.63
2023-01-22T18:03:48.860Z,86.29
2023-01-22T18:06:17.646Z,86.27
2023-01-22T18:08:45.804Z,86.33
2023-01-22T18:11:16.895Z,86.75
2023-01-22T18:13:45.735Z,87.32
2023-01-22T18:16:16.008Z,88.07
2023-01-22T18:18:44.656Z,86.67
2023-01-22T18:21:16.679Z,87.36
2023-01-22T18:23:45.039Z,88.11
2023-01-22T18:26:14.023Z,88.31
2023-01-22T18:28:43.463Z,89.27
2023-01-22T18:31:15.492Z,89.88
2023-01-22T18:33:48.148Z,90.93
2023-01-22T18:36:17.955Z,90.00
2023-01-22T18:38:46.755Z,90.35
2023-01-22T18:41:18.976Z,89.68
2023-01-22T18:43:53.437Z,89.95
2023-01-22T18:46:22.099Z,89.88
2023-01-22T18:53:09.803Z,89.81
2023-01-22T18:55:38.431Z,90.76
2023-01-22T18:58:11.356Z,92.01
2023-01-22T19:00:42.134Z,92.23
2023-01-22T19:03:10.700Z,91.73
2023-01-22T19:05:40.959Z,92.04
2023-01-22T19:08:09.170Z,91.37
2023-01-22T19:10:37.023Z,91.85
2023-01-22T19:13:04.906Z,91.41
2023-01-22T19:15:34.275Z,93.17
2023-01-22T19:18:03.597Z,92.58
2023-01-22T19:20:31.435Z,92.01
2023-01-22T19:23:00.173Z,92.26
2023-01-22T19:25:28.121Z,92.78
2023-01-22T19:27:56.446Z,92.15
2023-01-22T19:30:24.668Z,92.16
2023-01-22T19:32:54.406Z,92.71
2023-01-22T19:35:24.146Z,91.80
2023-01-22T19:37:53.157Z,91.47
2023-01-22T19:40:21.863Z,91.48
2023-01-22T19:42:49.738Z,91.13
2023-01-22T19:45:18.059Z,90.71
2023-01-22T19:47:46.141Z,90.12
2023-01-22T19:50:13.904Z,89.56
2023-01-22T19:52:43.151Z,89.22
2023-01-22T19:55:13.145Z,89.05
2023-01-22T19:57:43.265Z,88.35
2023-01-22T20:00:12.851Z,87.80
2023-01-22T20:02:41.142Z,87.43
2023-01-22T20:05:09.377Z,87.53
2023-01-22T20:07:37.236Z,87.91
2023-01-22T20:10:07.349Z,89.23
2023-01-22T20:12:35.107Z,88.25
2023-01-22T20:15:02.919Z,88.90
2023-01-22T20:17:30.857Z,87.91
2023-01-22T20:19:58.729Z,88.66
2023-01-22T20:22:26.539Z,89.27
2023-01-22T20:24:54.528Z,88.42
2023-01-22T20:27:23.821Z,89.77
2023-01-22T20:29:51.621Z,90.24
2023-01-22T20:32:20.458Z,90.54
2023-01-22T20:34:48.980Z,90.99
2023-01-22T20:37:16.867Z,91.01
2023-01-22T20:39:45.694Z,90.84
2023-01-22T20:42:13.557Z,91.01
2023-01-22T20:44:45.659Z,91.75
2023-01-22T20:47:13.808Z,90.87
2023-01-22T20:49:41.690Z,90.03
2023-01-22T20:52:09.590Z,91.30
2023-01-22T20:54:46.021Z,92.98
2023-01-22T20:57:22.994Z,92.83
2023-01-22T20:59:52.369Z,92.84
2023-01-22T21:02:20.785Z,93.53
2023-01-22T21:04:52.666Z,93.25
2023-01-22T21:07:20.989Z,92.99
2023-01-22T21:09:50.412Z,93.17
2023-01-22T21:12:18.397Z,92.27
2023-01-22T21:14:46.227Z,92.58
2023-01-22T21:17:18.793Z,93.42
2023-01-22T21:19:46.601Z,94.06
2023-01-22T21:22:14.446Z,93.21
2023-01-22T21:24:45.038Z,92.93
2023-01-22T21:27:12.878Z,92.28
2023-01-22T21:29:40.683Z,91.53
2023-01-22T21:32:08.597Z,93.15
2023-01-22T21:34:37.871Z,92.56
2023-01-22T21:37:08.027Z,91.88
2023-01-22T21:39:44.876Z,91.48
2023-01-22T21:42:30.646Z,90.56
2023-01-22T21:45:16.906Z,90.40
2023-01-22T21:47:44.745Z,89.64
2023-01-22T21:50:13.943Z,89.40
2023-01-22T21:52:45.502Z,88.96
2023-01-22T21:55:14.893Z,88.97
2023-01-22T21:57:44.140Z,88.45
2023-01-22T22:00:13.777Z,87.99
2023-01-22T22:02:41.655Z,87.87
2023-01-22T22:05:10.885Z,88.35
2023-01-22T22:07:43.761Z,88.95
2023-01-22T22:10:14.737Z,88.88
2023-01-22T22:12:43.195Z,88.31
2023-01-22T22:15:12.117Z,89.14
2023-01-22T22:17:40.199Z,88.96
2023-01-22T22:20:09.970Z,88.09
2023-01-22T22:23:04.043Z,88.97
2023-01-22T22:25:32.630Z,88.54
2023-01-22T22:28:00.687Z,88.68
2023-01-22T22:30:28.943Z,89.11
2023-01-22T22:32:59.924Z,89.17
2023-01-22T22:35:27.764Z,90.03
2023-01-22T22:37:55.626Z,88.85
2023-01-22T22:40:25.131Z,92.07
2023-01-22T22:42:55.427Z,91.98
2023-01-22T22:45:23.277Z,90.66
2023-01-22T22:47:51.102Z,91.37
2023-01-22T22:50:19.305Z,91.41
2023-01-22T22:52:47.382Z,91.47
2023-01-22T22:55:15.334Z,92.45
2023-01-22T22:57:49.420Z,91.01
2023-01-22T23:00:18.376Z,90.96
2023-01-22T23:02:46.380Z,93.12
2023-01-22T23:05:14.325Z,92.04
2023-01-22T23:07:42.218Z,94.34
2023-01-22T23:10:28.654Z,93.41
2023-01-22T23:12:59.946Z,93.63
2023-01-22T23:15:29.562Z,94.52
2023-01-22T23:17:58.797Z,94.53
2023-01-22T23:20:28.168Z,94.04
2023-01-22T23:22:57.245Z,92.96
2023-01-22T23:25:25.576Z,92.52
2023-01-22T23:27:55.657Z,91.42
2023-01-22T23:30:26.572Z,91.36
2023-01-22T23:32:54.455Z,91.12
2023-01-22T23:35:22.411Z,90.57
2023-01-22T23:37:50.273Z,90.81
2023-01-22T23:40:18.703Z,92.29
2023-01-22T23:42:49.039Z,92.80
2023-01-22T23:45:17.210Z,92.11
2023-01-22T23:47:46.438Z,90.52
2023-01-22T23:50:15.831Z,91.43
2023-01-22T23:52:43.867Z,91.05
2023-01-22T23:55:12.236Z,91.60
2023-01-22T23:57:40.383Z,92.46
